createdAt,value
2022-12-05T00:01:41.177Z,3.90
2022-12-05T00:04:44.517Z,4.60
2022-12-05T00:07:48.116Z,4.80
2022-12-05T00:10:50.251Z,4.25
2022-12-05T00:13:54.850Z,3.75
2022-12-05T00:16:57.118Z,4.60
2022-12-05T00:19:59.637Z,4.38
2022-12-05T00:23:02.186Z,4.43
2022-12-05T00:26:04.704Z,4.47
2022-12-05T00:29:06.712Z,3.90
2022-12-05T00:32:08.563Z,4.13
2022-12-05T00:35:10.728Z,4.47
2022-12-05T00:38:12.951Z,4.57
2022-12-05T00:41:21.336Z,4.75
2022-12-05T00:44:23.214Z,5.15
2022-12-05T00:47:24.968Z,4.43
2022-12-05T00:50:27.237Z,3.88
2022-12-05T00:53:29.268Z,4.03
2022-12-05T00:56:31.848Z,4.22
2022-12-05T00:59:33.837Z,4.25
2022-12-05T01:02:35.624Z,4.10
2022-12-05T01:05:37.691Z,4.28
2022-12-05T01:08:40.344Z,4.47
2022-12-05T01:11:42.751Z,4.32
2022-12-05T01:14:44.607Z,3.92
2022-12-05T01:17:46.510Z,4.70
2022-12-05T01:20:49.297Z,5.18
2022-12-05T01:23:51.389Z,4.78
2022-12-05T01:26:53.358Z,3.90
2022-12-05T01:29:56.161Z,4.43
2022-12-05T01:32:59.374Z,4.82
2022-12-05T01:36:02.510Z,4.15
2022-12-05T01:39:04.250Z,3.95
2022-12-05T01:42:06.117Z,4.70
2022-12-05T01:45:15.820Z,3.97
2022-12-05T01:48:24.267Z,4.68
2022-12-05T01:51:26.134Z,4.10
2022-12-05T01:54:28.369Z,3.70
2022-12-05T01:57:30.911Z,3.70
2022-12-05T02:00:36.296Z,4.00
2022-12-05T02:03:38.669Z,5.13
2022-12-05T02:06:40.692Z,4.90
2022-12-05T02:09:42.654Z,4.00
2022-12-05T02:12:45.473Z,4.38
2022-12-05T02:16:03.501Z,4.72
2022-12-05T02:19:30.278Z,4.50
2022-12-05T02:22:54.365Z,5.50
2022-12-05T02:26:15.031Z,4.13
2022-12-05T02:29:54.661Z,3.72
2022-12-05T02:33:17.357Z,5.13
2022-12-05T02:36:32.575Z,4.68
2022-12-05T02:39:57.704Z,5.00
2022-12-05T02:43:03.775Z,4.72
2022-12-05T02:46:12.168Z,4.70
2022-12-05T02:49:18.008Z,4.93
2022-12-05T02:52:21.603Z,4.38
2022-12-05T02:55:24.430Z,4.55
2022-12-05T02:58:32.493Z,3.80
2022-12-05T03:01:34.367Z,4.53
2022-12-05T03:04:36.485Z,5.07
2022-12-05T03:07:39.108Z,4.93
2022-12-05T03:10:42.137Z,5.70
2022-12-05T03:13:56.645Z,5.30
2022-12-05T03:17:01.642Z,4.35
2022-12-05T03:20:16.267Z,4.95
2022-12-05T03:23:22.456Z,4.53
2022-12-05T03:26:42.902Z,5.67
2022-12-05T03:29:56.392Z,4.20
2022-12-05T03:33:32.166Z,4.63
2022-12-05T03:36:39.716Z,5.07
2022-12-05T03:39:45.099Z,4.28
2022-12-05T03:42:55.888Z,4.93
2022-12-05T03:46:05.975Z,3.97
2022-12-05T03:49:11.474Z,4.60
2022-12-05T03:52:18.144Z,5.55
2022-12-05T03:55:20.344Z,6.15
2022-12-05T03:58:51.664Z,5.22
2022-12-05T04:01:56.137Z,4.80
2022-12-05T04:05:13.516Z,5.40
2022-12-05T04:08:39.220Z,5.70
2022-12-05T04:11:44.281Z,5.15
2022-12-05T04:14:50.294Z,4.20
2022-12-05T04:17:57.556Z,4.57
2022-12-05T04:21:19.081Z,4.88
2022-12-05T04:24:57.168Z,4.97
2022-12-05T04:28:10.971Z,4.93
2022-12-05T04:31:23.496Z,3.95
2022-12-05T04:34:28.720Z,4.22
2022-12-05T04:37:32.339Z,5.53
2022-12-05T04:40:39.305Z,5.10
2022-12-05T04:43:44.131Z,5.03
2022-12-05T04:46:46.954Z,4.68
2022-12-05T04:49:53.513Z,5.00
2022-12-05T04:52:56.801Z,4.25
2022-12-05T04:56:00.515Z,4.15
2022-12-05T04:59:03.078Z,4.30
2022-12-05T05:02:08.640Z,4.38
2022-12-05T05:05:14.077Z,4.47
2022-12-05T05:08:19.398Z,4.00
2022-12-05T05:11:26.030Z,4.75
2022-12-05T05:14:28.504Z,4.47
2022-12-05T05:17:30.698Z,3.90
2022-12-05T05:20:32.551Z,3.25
2022-12-05T05:23:34.478Z,4.05
2022-12-05T05:26:39.104Z,3.92
2022-12-05T05:29:41.149Z,3.90
2022-12-05T05:32:43.450Z,3.75
2022-12-05T05:35:45.410Z,4.07
2022-12-05T05:38:49.665Z,3.80
2022-12-05T05:41:51.421Z,3.72
2022-12-05T05:44:53.776Z,3.42
2022-12-05T05:47:55.700Z,3.80
2022-12-05T05:51:02.114Z,3.38
2022-12-05T05:54:04.194Z,3.47
2022-12-05T05:57:06.169Z,4.25
2022-12-05T06:00:09.073Z,3.70
2022-12-05T06:03:11.105Z,3.50
2022-12-05T06:06:15.003Z,4.10
2022-12-05T06:09:16.793Z,3.08
2022-12-05T06:12:19.225Z,3.65
2022-12-05T06:15:21.097Z,2.97
2022-12-05T06:18:23.135Z,3.15
2022-12-05T06:21:26.303Z,3.88
2022-12-05T06:24:28.125Z,2.78
2022-12-05T06:27:31.589Z,3.05
2022-12-05T06:30:33.414Z,2.45
2022-12-05T06:33:35.332Z,3.00
2022-12-05T06:36:37.666Z,3.17
2022-12-05T06:39:39.879Z,3.35
2022-12-05T06:42:41.880Z,3.10
2022-12-05T06:45:43.847Z,3.15
2022-12-05T06:48:46.007Z,4.13
2022-12-05T06:51:48.142Z,3.25
2022-12-05T06:54:50.179Z,3.20
2022-12-05T06:57:52.176Z,3.45
2022-12-05T07:01:13.204Z,3.15
2022-12-05T07:04:21.030Z,3.13
2022-12-05T07:07:23.478Z,2.92
2022-12-05T07:10:25.317Z,2.67
2022-12-05T07:13:27.548Z,3.15
2022-12-05T07:16:29.640Z,2.88
2022-12-05T07:19:32.207Z,4.85
2022-12-05T07:22:37.115Z,3.40
2022-12-05T07:25:40.527Z,3.30
2022-12-05T07:28:42.654Z,3.42
2022-12-05T07:31:44.900Z,3.97
2022-12-05T07:34:52.145Z,3.75
2022-12-05T07:37:57.868Z,3.85
2022-12-05T07:41:00.043Z,3.70
2022-12-05T07:44:02.446Z,4.63
2022-12-05T07:47:04.594Z,6.50
2022-12-05T07:50:07.037Z,4.95
2022-12-05T07:53:09.540Z,3.20
2022-12-05T07:56:19.470Z,5.45
2022-12-05T07:59:21.328Z,4.18
2022-12-05T08:02:23.280Z,3.80
2022-12-05T08:05:26.273Z,4.45
2022-12-05T08:08:28.004Z,3.22
2022-12-05T08:11:34.731Z,3.83
2022-12-05T08:14:36.710Z,3.35
2022-12-05T08:17:39.102Z,2.70
2022-12-05T08:20:41.189Z,4.13
2022-12-05T08:23:43.615Z,3.88
2022-12-05T08:26:45.979Z,3.42
2022-12-05T08:29:47.960Z,3.72
2022-12-05T08:32:49.999Z,3.67
2022-12-05T08:35:52.044Z,4.20
2022-12-05T08:39:02.953Z,5.25
2022-12-05T08:42:05.004Z,6.15
2022-12-05T08:45:07.746Z,4.40
2022-12-05T08:48:09.763Z,3.72
2022-12-05T08:51:13.205Z,3.83
2022-12-05T08:54:15.461Z,3.38
2022-12-05T08:57:17.274Z,4.60
2022-12-05T09:00:20.024Z,3.15
2022-12-05T09:03:22.034Z,4.20
2022-12-05T09:06:25.482Z,5.18
2022-12-05T09:09:27.774Z,3.25
2022-12-05T09:12:29.558Z,4.38
2022-12-05T09:15:31.811Z,4.20
2022-12-05T09:18:34.278Z,3.70
2022-12-05T09:21:36.338Z,4.53
2022-12-05T09:24:38.807Z,4.55
2022-12-05T09:27:40.762Z,4.50
2022-12-05T09:30:44.169Z,4.43
2022-12-05T09:33:47.346Z,4.57
2022-12-05T09:37:05.452Z,4.32
2022-12-05T09:40:17.718Z,3.67
2022-12-05T09:43:32.498Z,3.92
2022-12-05T09:46:55.365Z,3.45
2022-12-05T09:50:23.990Z,3.42
2022-12-05T09:53:30.926Z,5.03
2022-12-05T09:56:33.133Z,4.72
2022-12-05T09:59:35.409Z,3.67
2022-12-05T10:02:44.276Z,3.85
2022-12-05T10:06:20.945Z,4.03
2022-12-05T10:09:44.471Z,4.03
2022-12-05T10:13:01.961Z,3.60
2022-12-05T10:16:10.626Z,2.88
2022-12-05T10:19:24.600Z,4.60
2022-12-05T10:22:43.270Z,4.05
2022-12-05T10:25:45.592Z,4.10
2022-12-05T10:29:13.353Z,4.20
2022-12-05T10:33:05.008Z,4.90
2022-12-05T10:36:13.311Z,4.22
2022-12-05T10:39:15.530Z,4.82
2022-12-05T10:42:27.520Z,4.38
2022-12-05T10:45:29.511Z,5.88
2022-12-05T10:48:38.757Z,5.13
2022-12-05T10:51:40.878Z,4.57
2022-12-05T10:54:49.818Z,5.32
2022-12-05T10:58:02.717Z,4.50
2022-12-05T11:01:09.764Z,5.30
2022-12-05T11:04:31.022Z,5.35
2022-12-05T11:07:45.873Z,5.78
2022-12-05T11:10:47.726Z,3.60
2022-12-05T11:13:59.114Z,4.88
2022-12-05T11:17:02.942Z,3.58
2022-12-05T11:20:25.236Z,3.95
2022-12-05T11:23:30.457Z,4.50
2022-12-05T11:26:37.446Z,3.60
2022-12-05T11:29:40.165Z,3.97
2022-12-05T11:32:42.398Z,4.90
2022-12-05T11:35:45.275Z,5.25
2022-12-05T11:38:47.503Z,5.10
2022-12-05T11:41:52.814Z,4.07
2022-12-05T11:45:13.088Z,4.18
2022-12-05T11:48:37.011Z,4.88
2022-12-05T11:52:13.309Z,4.25
2022-12-05T11:55:19.895Z,4.88
2022-12-05T11:58:31.155Z,4.60
2022-12-05T12:01:54.670Z,3.92
2022-12-05T12:05:11.935Z,4.10
2022-12-05T12:08:27.959Z,4.47
2022-12-05T12:11:47.683Z,5.22
2022-12-05T12:15:09.130Z,4.82
2022-12-05T12:18:29.543Z,4.50
2022-12-05T12:22:05.860Z,3.58
2022-12-05T12:25:27.433Z,3.70
2022-12-05T12:28:46.155Z,4.68
2022-12-05T12:32:02.032Z,5.53
2022-12-05T12:35:16.626Z,5.35
2022-12-05T12:38:22.096Z,4.35
2022-12-05T12:41:50.187Z,5.65
2022-12-05T12:48:34.776Z,4.47
2022-12-05T12:51:49.156Z,4.47
2022-12-05T12:55:30.330Z,4.53
2022-12-05T12:58:35.170Z,4.13
2022-12-05T13:02:10.681Z,4.70
2022-12-05T13:05:24.562Z,4.32
2022-12-05T13:08:50.419Z,4.13
2022-12-05T13:11:53.589Z,3.83
2022-12-05T13:15:00.825Z,4.18
2022-12-05T13:18:05.087Z,4.47
2022-12-05T13:21:09.226Z,4.80
2022-12-05T13:24:12.327Z,4.45
2022-12-05T13:27:18.529Z,5.57
2022-12-05T13:30:20.877Z,4.50
2022-12-05T13:33:26.496Z,4.70
2022-12-05T13:36:47.177Z,4.07
2022-12-05T13:40:13.235Z,3.00
2022-12-05T13:43:18.939Z,4.85
2022-12-05T13:46:26.965Z,3.30
2022-12-05T13:49:43.723Z,3.63
2022-12-05T13:52:49.536Z,4.20
2022-12-05T13:56:00.925Z,2.90
2022-12-05T13:59:03.407Z,3.75
2022-12-05T14:02:47.464Z,3.75
2022-12-05T14:05:51.887Z,2.85
2022-12-05T14:08:54.869Z,3.25
2022-12-05T14:12:15.144Z,3.67
2022-12-05T14:15:29.373Z,3.50
2022-12-05T14:18:47.215Z,3.47
2022-12-05T14:21:49.445Z,3.53
2022-12-05T14:25:00.386Z,3.70
2022-12-05T14:28:02.443Z,3.55
2022-12-05T14:31:26.385Z,4.60
2022-12-05T14:34:30.578Z,3.15
2022-12-05T14:37:36.939Z,2.90
2022-12-05T14:40:44.063Z,3.53
2022-12-05T14:43:52.914Z,3.78
2022-12-05T14:46:55.092Z,3.55
2022-12-05T14:50:35.366Z,3.55
2022-12-05T14:53:42.381Z,5.43
2022-12-05T14:56:46.539Z,3.53
2022-12-05T15:00:10.048Z,3.33
2022-12-05T15:03:22.522Z,4.03
2022-12-05T15:06:28.298Z,3.78
2022-12-05T15:09:38.163Z,3.58
2022-12-05T15:13:11.362Z,3.22
2022-12-05T15:16:16.889Z,3.15
2022-12-05T15:19:33.893Z,3.47
2022-12-05T15:22:37.678Z,3.38
2022-12-05T15:25:39.955Z,2.42
2022-12-05T15:28:42.219Z,3.22
2022-12-05T15:31:48.223Z,2.95
2022-12-05T15:35:05.329Z,3.35
2022-12-05T15:38:31.059Z,4.05
2022-12-05T15:41:33.280Z,2.65
2022-12-05T15:44:38.253Z,3.17
2022-12-05T15:47:46.430Z,3.85
2022-12-05T15:50:51.645Z,3.75
2022-12-05T15:54:01.075Z,3.75
2022-12-05T15:57:08.125Z,3.10
2022-12-05T16:00:19.036Z,7.00
2022-12-05T16:03:28.798Z,3.50
2022-12-05T16:06:41.212Z,3.35
2022-12-05T16:09:45.124Z,5.38
2022-12-05T16:12:48.383Z,4.95
2022-12-05T16:15:53.343Z,4.07
2022-12-05T16:19:00.377Z,5.05
2022-12-05T16:22:14.776Z,3.85
2022-12-05T16:25:22.116Z,4.20
2022-12-05T16:28:24.528Z,3.72
2022-12-05T16:31:27.373Z,4.57
2022-12-05T16:34:33.279Z,6.90
2022-12-05T16:37:35.617Z,5.97
2022-12-05T16:41:00.412Z,4.68
2022-12-05T16:44:10.753Z,3.15
2022-12-05T16:47:26.604Z,3.83
2022-12-05T16:50:35.131Z,3.28
2022-12-05T16:53:40.211Z,3.47
2022-12-05T16:56:43.290Z,3.97
2022-12-05T16:59:49.084Z,3.70
2022-12-05T17:02:55.268Z,3.72
2022-12-05T17:05:58.290Z,5.13
2022-12-05T17:09:00.617Z,4.00
2022-12-05T17:12:07.623Z,4.35
2022-12-05T17:18:26.596Z,4.30
2022-12-05T17:21:33.261Z,3.03
2022-12-05T17:24:36.355Z,3.65
2022-12-05T17:27:38.773Z,3.80
2022-12-05T17:30:41.429Z,3.88
2022-12-05T17:33:47.263Z,2.75
2022-12-05T17:36:49.537Z,4.60
2022-12-05T17:39:51.811Z,3.40
2022-12-05T17:42:54.800Z,3.55
2022-12-05T17:46:00.341Z,3.90
2022-12-05T17:49:02.797Z,3.30
2022-12-05T17:52:22.152Z,4.72
2022-12-05T17:55:28.542Z,3.63
2022-12-05T17:58:30.868Z,4.53
2022-12-05T18:01:33.109Z,3.72
2022-12-05T18:04:35.845Z,2.92
2022-12-05T18:07:39.542Z,3.95
2022-12-05T18:10:43.362Z,3.60
2022-12-05T18:13:45.862Z,3.40
2022-12-05T18:16:48.246Z,3.33
2022-12-05T18:19:50.625Z,4.70
2022-12-05T18:22:52.548Z,3.08
2022-12-05T18:26:01.383Z,3.25
2022-12-05T18:29:03.931Z,4.00
2022-12-05T18:32:07.131Z,6.10
2022-12-05T18:35:13.023Z,5.38
2022-12-05T18:38:16.124Z,6.10
2022-12-05T18:41:18.368Z,8.73
2022-12-05T18:44:21.501Z,8.27
2022-12-05T18:47:25.229Z,6.40
2022-12-05T18:50:30.424Z,5.80
2022-12-05T18:53:32.484Z,6.68
2022-12-05T18:56:36.507Z,6.57
2022-12-05T18:59:38.782Z,5.68
2022-12-05T19:02:40.824Z,9.88
2022-12-05T19:05:44.699Z,10.02
2022-12-05T19:08:49.686Z,9.02
2022-12-05T19:11:57.134Z,6.78
2022-12-05T19:15:02.245Z,6.65
2022-12-05T19:18:04.978Z,5.57
2022-12-05T19:21:08.320Z,7.22
2022-12-05T19:24:13.545Z,6.20
2022-12-05T19:27:16.098Z,5.32
2022-12-05T19:30:18.775Z,6.18
2022-12-05T19:33:21.088Z,5.50
2022-12-05T19:36:32.254Z,5.10
2022-12-05T19:39:37.637Z,4.75
2022-12-05T19:42:40.368Z,5.85
2022-12-05T19:45:42.935Z,5.30
2022-12-05T19:48:45.911Z,5.28
2022-12-05T19:51:49.379Z,5.30
2022-12-05T19:54:51.833Z,4.15
2022-12-05T19:57:54.549Z,4.65
2022-12-05T20:00:57.253Z,4.18
2022-12-05T20:04:02.253Z,5.20
2022-12-05T20:07:04.610Z,5.30
2022-12-05T20:10:07.142Z,6.07
2022-12-05T20:13:38.464Z,7.32
2022-12-05T20:16:33.938Z,7.13
2022-12-05T20:19:36.433Z,4.60
2022-12-05T20:22:38.736Z,5.88
2022-12-05T20:25:41.446Z,4.63
2022-12-05T20:28:45.206Z,6.18
2022-12-05T20:31:52.394Z,5.70
2022-12-05T20:37:57.557Z,4.78
2022-12-05T20:41:01.241Z,4.18
2022-12-05T20:44:06.373Z,4.50
2022-12-05T20:47:08.349Z,4.18
2022-12-05T20:50:11.455Z,4.20
2022-12-05T20:53:13.790Z,3.38
2022-12-05T20:56:17.712Z,4.25
2022-12-05T20:59:19.955Z,3.40
2022-12-05T21:02:22.100Z,3.40
2022-12-05T21:05:24.865Z,2.90
2022-12-05T21:08:27.711Z,3.17
2022-12-05T21:11:31.058Z,3.58
2022-12-05T21:14:34.889Z,3.05
2022-12-05T21:17:37.239Z,3.15
2022-12-05T21:20:42.270Z,2.83
2022-12-05T21:23:46.408Z,3.80
2022-12-05T21:26:50.240Z,3.33
2022-12-05T21:29:52.671Z,3.10
2022-12-05T21:32:55.736Z,3.63
2022-12-05T21:35:58.062Z,4.25
2022-12-05T21:39:01.032Z,2.92
2022-12-05T21:42:03.243Z,3.97
2022-12-05T21:45:05.420Z,4.32
2022-12-05T21:48:07.695Z,3.63
2022-12-05T21:51:10.425Z,3.92
2022-12-05T21:54:12.729Z,4.95
2022-12-05T21:57:14.866Z,4.30
2022-12-05T22:00:17.376Z,4.38
2022-12-05T22:03:19.432Z,4.95
2022-12-05T22:06:21.497Z,4.00
2022-12-05T22:09:23.526Z,5.47
2022-12-05T22:12:25.861Z,5.22
2022-12-05T22:15:27.979Z,5.03
2022-12-05T22:18:30.623Z,5.63
2022-12-05T22:21:35.215Z,5.45
2022-12-05T22:24:37.952Z,4.97
2022-12-05T22:27:39.820Z,5.03
2022-12-05T22:30:41.922Z,3.88
2022-12-05T22:33:45.182Z,3.63
2022-12-05T22:36:49.154Z,7.32
2022-12-05T22:39:51.438Z,5.43
2022-12-05T22:42:53.282Z,4.22
2022-12-05T22:45:55.881Z,3.42
2022-12-05T22:48:58.492Z,3.33
2022-12-05T22:52:00.383Z,4.05
2022-12-05T22:55:02.701Z,3.15
2022-12-05T22:58:04.815Z,3.20
2022-12-05T23:01:11.791Z,3.58
2022-12-05T23:04:13.680Z,3.10
2022-12-05T23:07:15.865Z,3.08
2022-12-05T23:10:17.902Z,4.50
2022-12-05T23:13:19.762Z,3.80
2022-12-05T23:16:26.464Z,3.13
2022-12-05T23:19:28.367Z,4.00
2022-12-05T23:22:30.566Z,3.80
2022-12-05T23:25:32.546Z,2.97
2022-12-05T23:28:35.647Z,2.38
2022-12-05T23:31:37.723Z,2.22
2022-12-05T23:34:40.384Z,1.88
2022-12-05T23:37:42.662Z,1.52
2022-12-05T23:40:44.441Z,2.00
2022-12-05T23:43:47.528Z,1.90
2022-12-05T23:46:49.531Z,1.30
2022-12-05T23:49:51.430Z,2.72
2022-12-05T23:52:53.656Z,4.47
2022-12-05T23:55:55.948Z,3.33
2022-12-05T23:58:58.028Z,2.85
